Time;durP1;ratioP1;P1;durP2;ratioP2;P2;SDS_P1;SDS_P2;PMS_P1;PMS_P2;Temp;Humidity;BMP_temperature;BMP_pressure;BME280_temperature;BME280_humidity;BME280_pressure;Samples;Min_cycle;Max_cycle;Signal;HPM_P1;HPM_P2
2021/06/13 00:02:22;;;;;;;6.07;5.43;;;18.10;49.00;;;;;;5069812;28;20456;-81
2021/06/13 00:04:48;;;;;;;6.50;5.80;;;18.00;49.10;;;;;;5066539;28;20454;-79
2021/06/13 00:07:14;;;;;;;8.37;6.00;;;18.00;49.20;;;;;;5070733;28;20504;-80
2021/06/13 00:09:42;;;;;;;7.73;5.50;;;18.00;49.40;;;;;;5071396;28;20516;-80
2021/06/13 00:12:11;;;;;;;6.53;5.43;;;17.90;50.30;;;;;;5073500;28;20428;-79
2021/06/13 00:14:38;;;;;;;6.63;5.93;;;17.90;50.00;;;;;;5075684;28;20692;-80
2021/06/13 00:17:05;;;;;;;5.90;5.30;;;17.80;50.30;;;;;;5076509;28;20439;-79
2021/06/13 00:19:32;;;;;;;6.17;5.67;;;17.70;50.80;;;;;;5073623;28;20420;-79
2021/06/13 00:21:58;;;;;;;5.47;4.97;;;17.70;51.30;;;;;;5071472;28;20619;-79
2021/06/13 00:24:25;;;;;;;6.30;5.60;;;17.60;51.70;;;;;;5065116;28;20472;-81
2021/06/13 00:26:52;;;;;;;7.27;5.70;;;17.60;52.00;;;;;;5064709;28;20473;-79
2021/06/13 00:29:19;;;;;;;7.47;6.67;;;17.50;52.50;;;;;;5065784;28;20507;-81
2021/06/13 00:31:45;;;;;;;13.60;6.13;;;17.50;52.70;;;;;;5065995;28;20427;-81
2021/06/13 00:34:12;;;;;;;6.00;5.50;;;17.40;52.80;;;;;;5069547;28;20479;-80
2021/06/13 00:36:38;;;;;;;8.80;6.90;;;17.40;53.30;;;;;;5071098;28;20477;-79
2021/06/13 00:39:05;;;;;;;7.83;7.00;;;17.30;53.60;;;;;;5071959;28;20446;-79
2021/06/13 00:41:31;;;;;;;5.70;5.13;;;17.30;53.80;;;;;;5070081;28;20428;-79
2021/06/13 00:43:59;;;;;;;8.90;6.50;;;17.30;54.20;;;;;;5071690;28;20428;-80
2021/06/13 00:46:25;;;;;;;6.80;5.77;;;17.30;54.40;;;;;;5070169;28;20510;-79
2021/06/13 00:48:52;;;;;;;7.97;6.60;;;17.20;55.10;;;;;;5069391;28;20436;-79
2021/06/13 00:51:18;;;;;;;6.70;6.00;;;17.30;56.10;;;;;;5070001;28;20427;-80
2021/06/13 00:53:46;;;;;;;8.10;6.43;;;17.30;56.00;;;;;;5069885;28;20466;-79
2021/06/13 00:56:13;;;;;;;7.43;6.70;;;17.30;55.30;;;;;;5072946;28;20454;-79
2021/06/13 00:58:40;;;;;;;6.80;6.20;;;17.40;54.80;;;;;;5072141;28;20431;-79
2021/06/13 01:01:08;;;;;;;7.30;6.63;;;17.30;54.70;;;;;;5074434;28;20457;-80
2021/06/13 01:03:34;;;;;;;7.10;6.33;;;17.40;55.20;;;;;;5073375;28;20436;-80
2021/06/13 01:06:01;;;;;;;6.80;5.87;;;17.40;55.10;;;;;;5068178;28;20500;-80
2021/06/13 01:08:38;;;;;;;6.17;5.63;;;17.30;54.40;;;;;;5068391;28;20503;-79
2021/06/13 01:11:20;;;;;;;6.93;5.50;;;17.30;55.00;;;;;;5068109;28;20457;-79
2021/06/13 01:13:55;;;;;;;7.40;6.70;;;17.30;53.00;;;;;;5064857;28;20403;-79
2021/06/13 01:16:31;;;;;;;6.70;6.10;;;17.30;53.20;;;;;;5064315;28;20472;-80
2021/06/13 01:19:02;;;;;;;6.70;6.10;;;17.30;52.80;;;;;;5064631;28;20457;-79
2021/06/13 01:21:35;;;;;;;12.90;7.00;;;17.30;53.20;;;;;;5066823;28;20461;-79
2021/06/13 01:24:20;;;;;;;8.07;6.87;;;17.20;53.90;;;;;;5065056;28;20423;-79
2021/06/13 01:27:19;;;;;;;7.40;6.50;;;17.10;54.30;;;;;;5062806;28;20504;-80
2021/06/13 01:29:48;;;;;;;7.10;6.33;;;17.10;54.10;;;;;;5049709;28;20922;-80
2021/06/13 01:32:19;;;;;;;8.33;7.10;;;17.10;53.80;;;;;;5057667;28;20431;-78
2021/06/13 01:34:50;;;;;;;7.40;6.00;;;17.10;55.00;;;;;;5052671;28;20466;-79
2021/06/13 01:37:21;;;;;;;7.53;6.17;;;17.00;55.00;;;;;;5059723;28;20431;-79
2021/06/13 01:39:51;;;;;;;9.30;7.07;;;16.90;55.70;;;;;;5060111;28;20515;-79
2021/06/13 01:42:18;;;;;;;7.77;6.70;;;16.90;55.70;;;;;;5060002;28;20967;-79
2021/06/13 01:44:49;;;;;;;8.30;6.70;;;16.90;55.70;;;;;;5054792;28;20482;-79
2021/06/13 01:47:16;;;;;;;9.60;6.03;;;16.90;54.60;;;;;;5061724;28;20446;-79
2021/06/13 01:49:43;;;;;;;6.93;5.97;;;16.80;54.70;;;;;;5064959;28;20457;-79
2021/06/13 01:52:11;;;;;;;7.33;5.40;;;16.80;55.60;;;;;;5065748;28;20428;-79
2021/06/13 01:54:38;;;;;;;10.70;6.80;;;16.80;55.00;;;;;;5061231;28;20451;-80
2021/06/13 01:57:06;;;;;;;7.23;6.63;;;16.80;55.50;;;;;;5063561;28;20482;-78
2021/06/13 01:59:34;;;;;;;12.33;7.07;;;16.80;55.60;;;;;;5068794;28;20435;-79
2021/06/13 02:02:04;;;;;;;7.30;6.60;;;16.80;55.40;;;;;;5064757;28;20831;-78
2021/06/13 02:04:33;;;;;;;9.27;6.87;;;16.80;55.60;;;;;;5064841;28;20496;-79
2021/06/13 02:07:00;;;;;;;7.90;7.17;;;16.70;55.50;;;;;;5059284;28;20454;-79
2021/06/13 02:09:28;;;;;;;7.60;6.80;;;16.70;55.50;;;;;;5057197;28;20469;-77
2021/06/13 02:11:57;;;;;;;7.03;6.33;;;16.70;55.50;;;;;;5057829;28;20462;-77
2021/06/13 02:14:25;;;;;;;8.90;6.90;;;16.60;55.40;;;;;;5058622;28;20972;-78
2021/06/13 02:16:52;;;;;;;10.33;6.80;;;16.60;55.40;;;;;;5055706;28;20556;-78
2021/06/13 02:19:23;;;;;;;7.83;7.03;;;16.50;55.30;;;;;;5054980;28;20434;-79
2021/06/13 02:21:54;;;;;;;12.07;6.90;;;16.50;55.30;;;;;;5055395;28;20468;-79
2021/06/13 02:24:23;;;;;;;10.47;6.80;;;16.40;55.90;;;;;;5054932;28;20519;-79
2021/06/13 02:26:49;;;;;;;13.00;6.90;;;16.30;57.10;;;;;;5055501;28;20542;-78
2021/06/13 02:29:17;;;;;;;8.83;6.77;;;16.30;57.80;;;;;;5055394;28;20931;-78
2021/06/13 02:31:45;;;;;;;8.17;6.63;;;16.30;57.30;;;;;;5057843;28;20495;-78
2021/06/13 02:34:18;;;;;;;8.70;7.80;;;16.30;57.30;;;;;;5066706;28;20554;-78
2021/06/13 02:36:47;;;;;;;8.27;6.67;;;16.30;57.20;;;;;;5055197;28;21005;-78
2021/06/13 02:39:14;;;;;;;8.10;6.50;;;16.30;56.30;;;;;;5055975;28;20420;-78
2021/06/13 02:41:40;;;;;;;9.10;7.00;;;16.30;56.50;;;;;;5056720;28;20504;-78
2021/06/13 02:44:07;;;;;;;15.13;6.90;;;16.20;56.80;;;;;;5057358;28;20480;-78
2021/06/13 02:46:33;;;;;;;10.03;7.23;;;16.20;56.40;;;;;;5058318;28;20459;-78
2021/06/13 02:49:00;;;;;;;8.43;6.40;;;16.20;56.30;;;;;;5060799;28;20485;-79
2021/06/13 02:51:33;;;;;;;7.17;6.27;;;16.10;57.70;;;;;;5060437;28;20833;-79
2021/06/13 02:54:03;;;;;;;9.73;7.37;;;16.10;56.30;;;;;;5064231;28;20463;-79
2021/06/13 02:56:33;;;;;;;7.00;6.27;;;16.10;56.90;;;;;;5060901;28;20472;-78
2021/06/13 02:59:06;;;;;;;8.97;6.80;;;16.10;55.00;;;;;;5066132;28;20479;-79
2021/06/13 03:01:33;;;;;;;9.30;6.43;;;16.10;56.50;;;;;;5059890;28;20465;-79
2021/06/13 03:04:02;;;;;;;9.30;7.50;;;16.00;56.50;;;;;;5058861;28;20424;-79
2021/06/13 03:06:31;;;;;;;9.67;7.20;;;16.10;57.60;;;;;;5059524;28;20502;-78
2021/06/13 03:08:58;;;;;;;7.73;6.47;;;16.10;57.70;;;;;;5058871;28;21003;-79
2021/06/13 03:11:26;;;;;;;7.60;6.37;;;16.10;57.60;;;;;;5054635;28;20424;-77
2021/06/13 03:13:55;;;;;;;8.10;6.50;;;16.00;57.80;;;;;;5056436;28;20481;-78
2021/06/13 03:16:22;;;;;;;10.47;6.53;;;15.90;57.80;;;;;;5065584;28;20537;-79
2021/06/13 03:18:50;;;;;;;6.80;6.20;;;15.90;58.60;;;;;;5058724;28;20511;-78
2021/06/13 03:21:19;;;;;;;7.70;6.80;;;15.80;58.80;;;;;;5063761;28;20432;-79
2021/06/13 03:23:47;;;;;;;12.50;6.33;;;15.70;59.70;;;;;;5055406;28;20424;-79
2021/06/13 03:26:15;;;;;;;10.50;6.23;;;15.60;59.80;;;;;;5054262;28;20580;-78
2021/06/13 03:28:45;;;;;;;10.43;6.27;;;15.60;60.20;;;;;;5055462;28;20485;-79
2021/06/13 03:31:13;;;;;;;7.80;5.97;;;15.60;61.60;;;;;;5054922;28;20849;-79
2021/06/13 03:33:40;;;;;;;11.07;5.97;;;15.70;61.30;;;;;;5055063;28;20767;-78
2021/06/13 03:36:08;;;;;;;12.03;6.60;;;15.70;60.70;;;;;;5056190;28;20465;-79
2021/06/13 03:38:37;;;;;;;8.93;6.30;;;15.70;60.00;;;;;;5055753;28;20431;-78
2021/06/13 03:41:04;;;;;;;7.83;5.47;;;15.70;59.90;;;;;;5054920;28;20493;-78
2021/06/13 03:43:32;;;;;;;6.27;5.30;;;15.70;60.00;;;;;;5054232;28;20464;-78
2021/06/13 03:46:02;;;;;;;6.50;5.37;;;15.70;59.40;;;;;;5053860;28;20493;-78
2021/06/13 03:48:29;;;;;;;6.70;6.07;;;15.70;59.90;;;;;;5054660;28;20718;-78
2021/06/13 03:50:59;;;;;;;6.23;5.00;;;15.70;59.90;;;;;;5055034;28;20508;-78
2021/06/13 03:53:26;;;;;;;7.37;5.70;;;15.70;59.80;;;;;;5052249;28;20438;-78
2021/06/13 03:55:53;;;;;;;9.63;5.60;;;15.70;59.30;;;;;;5053647;28;20504;-79
2021/06/13 03:58:25;;;;;;;6.90;5.63;;;15.70;58.50;;;;;;5054293;28;20428;-79
2021/06/13 04:00:54;;;;;;;6.13;5.35;;;15.70;58.80;;;;;;5054590;28;20468;-79
2021/06/13 04:03:24;;;;;;;7.60;5.20;;;15.70;58.30;;;;;;5054748;28;20294;-79
2021/06/13 04:05:52;;;;;;;10.33;4.50;;;15.70;58.00;;;;;;5054113;28;20584;-79
2021/06/13 04:08:21;;;;;;;7.33;5.10;;;15.70;56.80;;;;;;5054745;28;20515;-78
2021/06/13 04:10:51;;;;;;;6.20;4.77;;;15.70;56.60;;;;;;5057840;28;20428;-78
2021/06/13 04:13:20;;;;;;;7.40;5.50;;;15.80;56.00;;;;;;5061118;28;20476;-78
2021/06/13 04:15:47;;;;;;;7.38;5.47;;;15.80;56.40;;;;;;5056402;28;20531;-79
2021/06/13 04:18:15;;;;;;;5.90;4.80;;;15.80;56.90;;;;;;5060000;28;20575;-80
2021/06/13 04:20:45;;;;;;;5.70;4.70;;;15.80;56.50;;;;;;5068908;28;20535;-77
2021/06/13 04:23:15;;;;;;;10.20;6.00;;;15.90;55.60;;;;;;5070534;28;20528;-78
2021/06/13 04:25:43;;;;;;;6.67;4.90;;;16.00;55.90;;;;;;5067636;28;20520;-79
2021/06/13 04:28:14;;;;;;;7.17;5.40;;;16.10;55.00;;;;;;5061113;28;20441;-79
2021/06/13 04:30:41;;;;;;;9.47;5.40;;;16.20;55.00;;;;;;5066974;28;20437;-78
2021/06/13 04:33:11;;;;;;;7.83;4.93;;;16.20;55.00;;;;;;5060731;28;20430;-79
2021/06/13 04:35:38;;;;;;;6.80;5.00;;;16.30;55.10;;;;;;5058438;28;20809;-79
2021/06/13 04:38:07;;;;;;;6.37;4.53;;;16.40;54.70;;;;;;5059676;28;20460;-78
2021/06/13 04:40:33;;;;;;;8.30;5.30;;;16.40;53.90;;;;;;5058030;28;20448;-78
2021/06/13 04:43:00;;;;;;;7.23;5.20;;;16.40;53.60;;;;;;5053080;28;20947;-79
2021/06/13 04:45:27;;;;;;;6.70;4.93;;;16.30;53.70;;;;;;5076936;22;20963;-83
2021/06/13 04:47:54;;;;;;;7.07;4.60;;;16.50;55.70;;;;;;5064124;28;20457;-83
2021/06/13 04:50:21;;;;;;;7.53;4.20;;;17.20;52.20;;;;;;5064721;28;20452;-82
2021/06/13 04:52:49;;;;;;;6.80;4.50;;;18.10;47.80;;;;;;5062940;28;20454;-80
2021/06/13 04:55:31;;;;;;;9.57;4.60;;;18.90;45.40;;;;;;5062673;28;20475;-81
2021/06/13 04:58:16;;;;;;;4.40;4.00;;;19.60;42.50;;;;;;5066505;28;20471;-81
2021/06/13 05:00:43;;;;;;;4.93;4.23;;;20.20;40.00;;;;;;5069278;28;20435;-83
2021/06/13 05:03:10;;;;;;;3.97;3.63;;;20.50;39.30;;;;;;5076738;28;20473;-84
2021/06/13 05:05:37;;;;;;;6.53;3.80;;;20.90;38.80;;;;;;5076740;28;20475;-84
2021/06/13 05:08:05;;;;;;;10.00;4.23;;;21.10;38.10;;;;;;5077432;28;20454;-86
2021/06/13 05:10:34;;;;;;;3.77;3.43;;;21.80;36.80;;;;;;5077689;28;20396;-85
2021/06/13 05:13:01;;;;;;;6.07;3.90;;;22.30;34.80;;;;;;5076459;28;20415;-84
2021/06/13 05:15:28;;;;;;;4.90;3.90;;;22.60;33.20;;;;;;5072690;28;20427;-83
2021/06/13 05:17:55;;;;;;;8.20;4.60;;;22.00;35.10;;;;;;5063119;28;20851;-82
2021/06/13 05:20:22;;;;;;;5.70;4.03;;;22.30;34.00;;;;;;5063875;28;20435;-82
2021/06/13 05:22:58;;;;;;;5.43;3.80;;;22.60;34.00;;;;;;5058900;28;20964;-81
2021/06/13 05:25:27;;;;;;;5.10;3.90;;;22.70;32.70;;;;;;5058320;28;20462;-82
2021/06/13 05:27:56;;;;;;;8.00;3.90;;;22.70;33.20;;;;;;5058943;28;20420;-83
2021/06/13 05:30:23;;;;;;;5.17;3.40;;;22.80;31.70;;;;;;5065793;28;20457;-79
2021/06/13 05:32:51;;;;;;;6.67;4.13;;;22.50;32.70;;;;;;5074372;28;20430;-83
2021/06/13 05:35:18;;;;;;;6.70;4.00;;;22.60;32.70;;;;;;5077734;28;20488;-84
2021/06/13 05:37:45;;;;;;;5.60;3.80;;;21.70;35.00;;;;;;5081071;28;20416;-83
2021/06/13 05:40:14;;;;;;;5.20;3.60;;;22.10;33.50;;;;;;5079937;28;20443;-80
2021/06/13 05:42:41;;;;;;;5.77;3.70;;;21.90;33.80;;;;;;5075542;28;20993;-82
2021/06/13 05:45:11;;;;;;;6.03;4.10;;;21.50;34.70;;;;;;5067015;28;20513;-80
2021/06/13 05:47:39;;;;;;;6.47;4.50;;;21.30;34.60;;;;;;5073130;28;20450;-82
2021/06/13 05:50:08;;;;;;;5.70;3.93;;;20.70;36.20;;;;;;5077579;28;20438;-80
2021/06/13 05:52:35;;;;;;;4.50;3.40;;;20.70;36.40;;;;;;5079752;28;20453;-81
2021/06/13 05:55:02;;;;;;;8.50;4.10;;;20.90;36.50;;;;;;5079456;28;20447;-85
2021/06/13 05:57:32;;;;;;;8.20;3.80;;;21.40;35.40;;;;;;5080587;28;20435;-85
2021/06/13 05:59:59;;;;;;;5.73;2.87;;;21.70;34.50;;;;;;5081012;28;20441;-85
2021/06/13 06:02:27;;;;;;;6.57;3.57;;;22.00;33.60;;;;;;5080803;28;20434;-86
2021/06/13 06:04:55;;;;;;;3.53;3.17;;;21.40;34.60;;;;;;5080543;28;20495;-85
2021/06/13 06:07:22;;;;;;;5.33;4.00;;;21.30;34.90;;;;;;5079999;28;20454;-81
2021/06/13 06:09:49;;;;;;;4.20;3.80;;;21.30;35.20;;;;;;5067963;28;20430;-80
2021/06/13 06:12:17;;;;;;;4.20;2.90;;;20.90;36.10;;;;;;5059614;28;20491;-79
2021/06/13 06:14:45;;;;;;;4.70;2.90;;;21.20;36.00;;;;;;5060818;28;20780;-80
2021/06/13 06:17:13;;;;;;;4.80;4.30;;;21.80;34.30;;;;;;5060822;28;20477;-78
2021/06/13 06:19:41;;;;;;;4.70;3.10;;;22.10;33.20;;;;;;5061892;28;20445;-79
2021/06/13 06:22:09;;;;;;;8.03;4.00;;;21.90;33.90;;;;;;5062891;28;20437;-80
2021/06/13 06:24:36;;;;;;;9.20;3.50;;;21.60;34.90;;;;;;5059226;28;20982;-78
2021/06/13 06:27:03;;;;;;;6.40;3.27;;;21.70;34.80;;;;;;5060789;28;20474;-80
2021/06/13 06:29:30;;;;;;;5.60;3.60;;;22.00;33.80;;;;;;5062784;28;20453;-81
2021/06/13 06:31:57;;;;;;;3.63;3.13;;;22.30;33.50;;;;;;5064258;28;20932;-80
2021/06/13 06:34:24;;;;;;;4.47;3.23;;;23.00;31.80;;;;;;5059959;28;20448;-81
2021/06/13 06:36:53;;;;;;;4.77;3.80;;;22.20;33.80;;;;;;5060858;28;20594;-79
2021/06/13 06:39:20;;;;;;;5.60;3.43;;;21.70;34.30;;;;;;5059797;28;20538;-78
2021/06/13 06:41:47;;;;;;;9.03;4.00;;;21.50;36.10;;;;;;5056796;28;20456;-80
2021/06/13 06:44:14;;;;;;;6.77;3.33;;;21.70;35.00;;;;;;5066455;28;20482;-79
2021/06/13 06:46:41;;;;;;;5.60;2.93;;;21.90;35.40;;;;;;5066742;28;20503;-80
2021/06/13 06:49:09;;;;;;;5.33;3.87;;;21.50;35.50;;;;;;5065475;28;20468;-80
2021/06/13 06:51:36;;;;;;;6.90;3.60;;;21.00;36.30;;;;;;5073124;28;20495;-81
2021/06/13 06:54:05;;;;;;;8.23;3.73;;;20.80;37.20;;;;;;5061664;28;20480;-81
2021/06/13 06:56:33;;;;;;;5.17;3.57;;;20.50;38.20;;;;;;5061423;28;21051;-80
2021/06/13 06:58:59;;;;;;;5.30;3.63;;;21.10;36.10;;;;;;5078623;28;20477;-80
2021/06/13 07:01:27;;;;;;;8.10;4.50;;;20.60;36.30;;;;;;5062860;28;20456;-80
2021/06/13 07:03:54;;;;;;;5.43;4.00;;;20.30;36.40;;;;;;5063003;28;20459;-79
2021/06/13 07:06:21;;;;;;;8.70;4.30;;;19.70;38.50;;;;;;5043028;28;20514;-80
2021/06/13 07:08:49;;;;;;;5.93;3.73;;;19.40;38.20;;;;;;5055701;28;20436;-82
2021/06/13 07:11:17;;;;;;;4.90;3.60;;;19.50;38.30;;;;;;5063518;28;20451;-81
2021/06/13 07:13:44;;;;;;;8.30;3.90;;;19.50;38.30;;;;;;5079849;28;20442;-82
2021/06/13 07:16:11;;;;;;;5.40;4.20;;;19.60;39.10;;;;;;5078520;28;20463;-85
2021/06/13 07:18:38;;;;;;;5.13;3.87;;;19.40;38.20;;;;;;5095733;28;20415;-84
2021/06/13 07:21:06;;;;;;;4.10;3.60;;;19.30;38.70;;;;;;5085564;28;20493;-82
2021/06/13 07:23:33;;;;;;;6.13;4.10;;;19.30;39.30;;;;;;5079739;28;20956;-81
2021/06/13 07:26:02;;;;;;;6.80;3.80;;;19.20;38.30;;;;;;5081535;28;20491;-81
2021/06/13 07:28:32;;;;;;;4.87;3.43;;;19.20;38.10;;;;;;5076813;28;20433;-81
2021/06/13 07:30:59;;;;;;;5.70;3.70;;;19.00;39.50;;;;;;5084873;28;20420;-80
2021/06/13 07:33:27;;;;;;;4.00;3.60;;;19.00;38.50;;;;;;5069023;28;20434;-82
2021/06/13 07:35:55;;;;;;;4.13;3.40;;;19.20;38.10;;;;;;5069720;28;20453;-79
2021/06/13 07:38:22;;;;;;;5.60;3.77;;;19.00;39.30;;;;;;5073535;28;20450;-85
2021/06/13 07:40:50;;;;;;;6.93;4.40;;;19.10;39.60;;;;;;5056669;28;20479;-81
2021/06/13 07:43:17;;;;;;;5.30;4.60;;;18.80;40.10;;;;;;5069455;28;20464;-80
2021/06/13 07:45:45;;;;;;;4.97;4.37;;;18.80;39.60;;;;;;5066237;28;20478;-81
2021/06/13 07:48:13;;;;;;;7.10;4.13;;;18.80;40.60;;;;;;5060855;28;20450;-82
2021/06/13 07:50:41;;;;;;;9.33;4.40;;;18.60;41.20;;;;;;5059064;28;20457;-83
2021/06/13 07:53:09;;;;;;;6.90;4.73;;;18.80;40.10;;;;;;5065694;28;20567;-81
2021/06/13 07:55:36;;;;;;;5.27;3.50;;;18.90;40.00;;;;;;5075544;28;20450;-85
2021/06/13 07:58:03;;;;;;;6.40;3.80;;;18.90;39.90;;;;;;5069989;28;20442;-80
2021/06/13 08:00:30;;;;;;;5.80;4.07;;;19.00;39.80;;;;;;5061303;28;20492;-82
2021/06/13 08:02:59;;;;;;;5.10;4.33;;;19.10;39.40;;;;;;5066306;28;20437;-81
2021/06/13 08:05:27;;;;;;;6.23;3.70;;;19.20;39.60;;;;;;5070332;28;20457;-81
2021/06/13 08:07:54;;;;;;;7.90;4.43;;;19.40;39.50;;;;;;5066781;28;20430;-80
2021/06/13 08:10:21;;;;;;;5.80;3.60;;;19.50;38.30;;;;;;5060051;28;20433;-82
2021/06/13 08:12:48;;;;;;;5.00;3.47;;;19.40;38.40;;;;;;5057969;28;20444;-81
2021/06/13 08:15:17;;;;;;;14.50;4.60;;;19.70;38.60;;;;;;5056500;28;20572;-81
2021/06/13 08:17:44;;;;;;;5.33;4.10;;;19.70;38.60;;;;;;5057750;28;20438;-81
2021/06/13 08:20:14;;;;;;;6.00;3.80;;;19.70;38.50;;;;;;5057398;28;20432;-81
2021/06/13 08:22:41;;;;;;;9.27;4.90;;;19.80;38.60;;;;;;5057061;28;20435;-81
2021/06/13 08:25:10;;;;;;;5.73;4.70;;;19.50;38.30;;;;;;5057124;28;20508;-81
2021/06/13 08:27:37;;;;;;;9.43;4.63;;;19.20;39.70;;;;;;5055198;28;20614;-82
2021/06/13 08:30:06;;;;;;;4.20;3.90;;;19.30;39.30;;;;;;5057717;28;20537;-81
2021/06/13 08:32:33;;;;;;;4.57;4.13;;;19.60;38.40;;;;;;5055498;28;20507;-82
2021/06/13 08:35:00;;;;;;;8.80;4.10;;;19.70;38.70;;;;;;5056570;28;20429;-80
2021/06/13 08:37:29;;;;;;;7.60;4.00;;;20.00;38.50;;;;;;5058336;28;20450;-82
2021/06/13 08:39:56;;;;;;;8.73;4.40;;;20.20;38.30;;;;;;5072205;28;20523;-82
2021/06/13 08:42:23;;;;;;;5.80;4.40;;;20.20;38.30;;;;;;5066841;28;20465;-80
2021/06/13 08:44:50;;;;;;;7.00;3.77;;;20.10;38.20;;;;;;5057380;28;20859;-81
2021/06/13 08:47:19;;;;;;;6.83;4.93;;;20.30;37.30;;;;;;5057236;28;20778;-81
2021/06/13 08:49:47;;;;;;;4.93;4.43;;;20.20;37.70;;;;;;5057435;28;20529;-82
2021/06/13 08:52:14;;;;;;;9.23;4.50;;;20.20;37.40;;;;;;5058323;28;20438;-81
2021/06/13 08:54:43;;;;;;;5.80;4.30;;;20.10;38.30;;;;;;5055135;28;20878;-81
2021/06/13 08:57:11;;;;;;;6.63;4.43;;;20.00;38.80;;;;;;5055708;28;20495;-81
2021/06/13 08:59:39;;;;;;;6.10;4.17;;;20.10;38.50;;;;;;5056435;28;20955;-81
2021/06/13 09:02:08;;;;;;;7.20;4.33;;;20.10;38.90;;;;;;5056272;28;20508;-79
2021/06/13 09:04:39;;;;;;;7.03;4.30;;;20.20;37.30;;;;;;5050997;28;20515;-78
2021/06/13 09:07:16;;;;;;;5.50;3.70;;;20.50;36.10;;;;;;5034932;28;20490;-79
2021/06/13 09:09:44;;;;;;;8.43;4.40;;;20.50;35.90;;;;;;5037817;28;20501;-78
2021/06/13 09:12:11;;;;;;;7.53;4.10;;;20.70;35.30;;;;;;5040770;28;20464;-80
2021/06/13 09:14:40;;;;;;;9.93;3.90;;;20.70;35.20;;;;;;5040739;28;20464;-79
2021/06/13 09:17:17;;;;;;;7.40;3.80;;;20.70;35.30;;;;;;5040024;28;20530;-79
2021/06/13 09:20:04;;;;;;;4.83;4.00;;;21.00;35.10;;;;;;5040236;28;20867;-79
2021/06/13 09:22:31;;;;;;;8.20;3.80;;;21.00;34.70;;;;;;5039271;28;20506;-79
2021/06/13 09:25:07;;;;;;;3.77;3.40;;;21.00;34.70;;;;;;5037250;28;20470;-79
2021/06/13 09:27:34;;;;;;;5.10;3.83;;;21.00;34.90;;;;;;5039099;28;20547;-79
2021/06/13 09:30:01;;;;;;;3.63;3.23;;;21.10;34.20;;;;;;5040145;28;20488;-78
2021/06/13 09:32:28;;;;;;;4.90;3.50;;;21.10;35.10;;;;;;5043756;28;20511;-79
2021/06/13 09:35:28;;;;;;;6.43;3.23;;;21.30;33.40;;;;;;5046274;28;20547;-80
2021/06/13 09:38:13;;;;;;;7.70;3.60;;;21.10;33.70;;;;;;4979424;28;20423;-79
2021/06/13 09:40:45;;;;;;;5.93;4.00;;;21.20;33.40;;;;;;5035926;28;20462;-78
2021/06/13 09:43:17;;;;;;;6.80;3.50;;;21.30;32.60;;;;;;5048134;28;20449;-81
2021/06/13 09:45:52;;;;;;;4.70;3.07;;;21.40;31.90;;;;;;5053346;28;20477;-80
2021/06/13 09:48:21;;;;;;;5.10;3.83;;;21.40;32.00;;;;;;5044582;28;20452;-82
2021/06/13 09:50:50;;;;;;;6.83;3.40;;;21.40;31.80;;;;;;5043899;28;20836;-82
2021/06/13 09:53:28;;;;;;;3.63;2.83;;;21.40;31.70;;;;;;5042916;28;20464;-85
2021/06/13 09:56:17;;;;;;;3.50;3.20;;;21.60;31.30;;;;;;5043642;28;20515;-84
2021/06/13 09:58:50;;;;;;;5.50;3.17;;;21.70;30.00;;;;;;5052667;28;20439;-84
2021/06/13 10:01:18;;;;;;;6.10;3.27;;;21.60;30.00;;;;;;5057736;28;20453;-84
2021/06/13 10:03:48;;;;;;;7.47;4.13;;;21.70;30.00;;;;;;5055744;28;20461;-81
2021/06/13 10:06:17;;;;;;;3.13;2.90;;;21.70;30.00;;;;;;5053666;28;20503;-84
2021/06/13 10:08:45;;;;;;;3.90;3.13;;;21.60;30.00;;;;;;5054466;28;20464;-83
2021/06/13 10:11:12;;;;;;;6.87;3.03;;;21.70;30.00;;;;;;5056834;28;20407;-83
2021/06/13 10:13:44;;;;;;;2.80;2.60;;;21.80;29.90;;;;;;5051851;28;20487;-84
2021/06/13 10:16:22;;;;;;;7.23;3.00;;;21.90;30.20;;;;;;5050981;28;20496;-81
2021/06/13 10:18:53;;;;;;;6.13;3.37;;;22.00;30.30;;;;;;5043423;28;20494;-82
2021/06/13 10:21:20;;;;;;;7.33;3.53;;;22.20;28.90;;;;;;5047950;28;20547;-84
2021/06/13 10:23:48;;;;;;;3.87;3.17;;;22.10;28.80;;;;;;5057692;28;20450;-80
2021/06/13 10:26:15;;;;;;;3.30;3.00;;;21.90;29.20;;;;;;5059508;28;20492;-84
2021/06/13 10:28:44;;;;;;;3.87;2.80;;;21.80;29.10;;;;;;5056166;28;20443;-80
2021/06/13 10:31:11;;;;;;;2.90;2.57;;;21.90;29.00;;;;;;5043319;28;20457;-83
2021/06/13 10:33:41;;;;;;;3.50;3.07;;;22.00;28.20;;;;;;5047406;28;20457;-83
2021/06/13 10:36:09;;;;;;;5.47;3.40;;;22.10;28.00;;;;;;5047633;28;20447;-80
2021/06/13 10:38:37;;;;;;;5.30;3.37;;;22.20;28.00;;;;;;5047293;28;20458;-82
2021/06/13 10:41:04;;;;;;;3.07;2.77;;;22.10;26.90;;;;;;5045187;28;20409;-83
2021/06/13 10:43:32;;;;;;;4.47;2.90;;;22.10;27.20;;;;;;5047275;28;20492;-82
2021/06/13 10:46:10;;;;;;;4.47;3.10;;;22.20;27.30;;;;;;5041793;28;20584;-78
2021/06/13 10:48:45;;;;;;;3.57;2.83;;;22.40;26.90;;;;;;5038507;28;20465;-80
2021/06/13 10:51:38;;;;;;;4.20;3.13;;;22.20;27.50;;;;;;5040845;28;20431;-82
2021/06/13 10:54:28;;;;;;;3.30;2.67;;;21.90;28.30;;;;;;5040536;28;20424;-80
2021/06/13 10:57:15;;;;;;;4.23;2.70;;;22.10;27.20;;;;;;5041177;28;20509;-81
2021/06/13 10:59:44;;;;;;;4.23;2.80;;;22.30;26.30;;;;;;5045448;28;20433;-83
2021/06/13 11:02:17;;;;;;;4.50;3.00;;;22.20;25.10;;;;;;5044551;28;20408;-81
2021/06/13 11:04:46;;;;;;;5.33;3.20;;;22.40;26.50;;;;;;5045899;28;20560;-82
2021/06/13 11:07:35;;;;;;;6.40;3.47;;;22.60;27.10;;;;;;5043124;28;20884;-81
2021/06/13 11:10:21;;;;;;;4.00;2.70;;;22.80;26.10;;;;;;5042924;28;20436;-82
2021/06/13 11:12:51;;;;;;;2.93;2.70;;;22.20;25.10;;;;;;5044459;28;20436;-81
2021/06/13 11:16:04;;;;;;;3.23;2.80;;;22.40;24.60;;;;;;5043404;28;20469;-81
2021/06/13 11:18:35;;;;;;;6.00;2.97;;;22.30;25.20;;;;;;5003895;28;20429;-83
2021/06/13 11:21:17;;;;;;;4.73;2.67;;;22.70;25.80;;;;;;5044564;28;20461;-83
2021/06/13 11:23:46;;;;;;;4.50;2.83;;;22.90;25.20;;;;;;5054957;28;20964;-83
2021/06/13 11:26:36;;;;;;;5.70;3.10;;;23.20;24.30;;;;;;5055421;28;20442;-82
2021/06/13 11:29:05;;;;;;;3.17;2.87;;;22.40;25.40;;;;;;5054722;28;20430;-81
2021/06/13 11:31:33;;;;;;;3.60;2.90;;;22.80;25.10;;;;;;5056385;28;20436;-83
2021/06/13 11:34:08;;;;;;;3.30;2.93;;;23.10;25.00;;;;;;5054625;28;20425;-83
2021/06/13 11:36:38;;;;;;;2.50;2.30;;;23.30;25.00;;;;;;5055602;28;20428;-82
2021/06/13 11:39:28;;;;;;;3.57;2.73;;;22.90;24.30;;;;;;5055886;28;20465;-82
2021/06/13 11:42:13;;;;;;;6.43;2.43;;;22.50;25.20;;;;;;5056924;28;20502;-81
2021/06/13 11:44:42;;;;;;;5.17;2.70;;;22.80;24.10;;;;;;5057198;28;20405;-82
2021/06/13 11:47:37;;;;;;;6.10;2.83;;;23.10;23.10;;;;;;5054622;28;20460;-82
2021/06/13 11:50:14;;;;;;;4.50;2.70;;;23.20;22.90;;;;;;5047785;28;20454;-81
2021/06/13 11:52:55;;;;;;;2.93;2.63;;;23.20;23.00;;;;;;5046999;28;20446;-82
2021/06/13 11:55:56;;;;;;;3.00;2.77;;;23.30;23.10;;;;;;5047026;28;20457;-82
2021/06/13 11:58:23;;;;;;;3.33;2.67;;;23.40;23.10;;;;;;5048695;28;20505;-82
2021/06/13 12:00:58;;;;;;;3.27;2.50;;;23.30;23.00;;;;;;5046860;28;20468;-82
2021/06/13 12:03:26;;;;;;;3.07;1.93;;;22.90;22.70;;;;;;5048499;28;20494;-82
2021/06/13 12:06:15;;;;;;;3.10;2.87;;;23.00;22.80;;;;;;5045814;28;20493;-82
2021/06/13 12:08:43;;;;;;;3.47;2.60;;;23.00;22.80;;;;;;5043924;28;20453;-84
2021/06/13 12:11:37;;;;;;;5.17;2.63;;;23.30;23.10;;;;;;5045569;28;20424;-84
2021/06/13 12:14:35;;;;;;;2.90;2.30;;;23.50;23.20;;;;;;5043539;28;20489;-81
2021/06/13 12:17:04;;;;;;;3.83;3.10;;;23.70;23.40;;;;;;4960358;28;20475;-82
2021/06/13 12:19:35;;;;;;;2.60;2.23;;;23.80;22.70;;;;;;5025178;28;20446;-83
2021/06/13 12:22:28;;;;;;;6.60;2.80;;;24.00;22.50;;;;;;5044646;28;20456;-83
2021/06/13 12:27:44;;;;;;;4.60;3.00;;;23.80;21.70;;;;;;5041835;28;20464;-81
2021/06/13 12:30:14;;;;;;;4.73;2.73;;;23.70;22.30;;;;;;5038094;28;20425;-82
2021/06/13 12:32:41;;;;;;;2.57;2.27;;;23.70;22.10;;;;;;5036511;28;20449;-81
2021/06/13 12:35:12;;;;;;;3.77;2.03;;;23.70;21.60;;;;;;5038206;28;20499;-83
2021/06/13 12:37:42;;;;;;;2.23;1.93;;;23.70;20.80;;;;;;5037132;28;20489;-81
2021/06/13 12:40:12;;;;;;;3.77;2.63;;;23.80;20.40;;;;;;5043147;28;20508;-82
2021/06/13 12:42:39;;;;;;;5.43;2.53;;;23.90;20.90;;;;;;5038772;28;20784;-82
2021/06/13 12:45:11;;;;;;;2.60;2.40;;;23.80;20.60;;;;;;5036603;28;20461;-81
2021/06/13 12:47:38;;;;;;;5.67;2.63;;;23.80;20.60;;;;;;5041841;28;20475;-83
2021/06/13 12:50:07;;;;;;;5.10;2.40;;;23.70;20.50;;;;;;5036105;28;20505;-81
2021/06/13 12:52:36;;;;;;;2.60;2.30;;;23.80;19.20;;;;;;5036632;28;20399;-82
2021/06/13 12:55:07;;;;;;;2.90;2.70;;;24.00;19.30;;;;;;5036555;28;20465;-82
2021/06/13 12:57:36;;;;;;;2.50;2.30;;;24.20;19.70;;;;;;5037314;28;20435;-81
2021/06/13 13:00:04;;;;;;;2.73;2.53;;;24.20;20.40;;;;;;5050110;28;20418;-85
2021/06/13 13:02:31;;;;;;;6.50;2.80;;;24.30;19.60;;;;;;5060763;28;20414;-81
2021/06/13 13:04:59;;;;;;;3.80;2.67;;;24.30;19.60;;;;;;5076207;28;20416;-83